This is the latest recevied weather packets stored in our database for station/object DG1ROH. If no packets are shown the sender has not sent any weather packets the latest 1 day(s).
| Time | Temp. | Humidity | Pressure | Rain* | Wind** | Luminosity | Snow |
|---|---|---|---|---|---|---|---|
| 1777973767 | 14.44° C | 88% | 1009.2 hPa | 0 mm | 0.45 m/s, 60° | 160 W/m² | - |
| 1777973646 | 14.44° C | 88% | 1009.2 hPa | 0 mm | 0.45 m/s, 48° | 153 W/m² | - |
| 1777973527 | 15° C | 88% | 1009.1 hPa | 0 mm | 0.45 m/s, 48° | 149 W/m² | - |
| 1777973407 | 15° C | 88% | 1009.1 hPa | 0 mm | 0.45 m/s, 46° | 146 W/m² | - |
| 1777973286 | 15° C | 88% | 1009.1 hPa | 0 mm | 0 m/s | 146 W/m² | - |
| 1777973167 | 15° C | 89% | 1009.2 hPa | 0 mm | 0 m/s | 153 W/m² | - |
| 1777973046 | 15° C | 89% | 1009.2 hPa | 0 mm | 0 m/s | 162 W/m² | - |
| 1777972926 | 15° C | 89% | 1009.2 hPa | 0 mm | 0 m/s | 174 W/m² | - |
| 1777972802 | 15° C | 89% | 1009.2 hPa | 0 mm | 0.45 m/s, 161° | 186 W/m² | - |
| 1777972682 | 15° C | 89% | 1009.2 hPa | 0 mm | 0.45 m/s, 161° | 199 W/m² | - |
| 1777972561 | 15° C | 89% | 1009.2 hPa | 0 mm | 0.45 m/s, 161° | 223 W/m² | - |
| 1777972441 | 15° C | 90% | 1009.1 hPa | 0 mm | 0.45 m/s, 155° | 237 W/m² | - |
| 1777972332 | 15° C | 90% | 1009.2 hPa | 0 mm | 0.45 m/s, 170° | 251 W/m² | - |
| 1777972201 | 15° C | 90% | 1009.2 hPa | 0 mm | 0 m/s | 250 W/m² | - |
| 1777972081 | 15° C | 91% | 1009.2 hPa | 0 mm | 0 m/s | 251 W/m² | - |
| 1777971961 | 14.44° C | 90% | 1009.2 hPa | 0 mm | 0 m/s | 248 W/m² | - |
| 1777971841 | 14.44° C | 91% | 1009.2 hPa | 0 mm | 0 m/s | 237 W/m² | - |
| 1777971721 | 14.44° C | 91% | 1009.2 hPa | 0 mm | 0 m/s | 227 W/m² | - |
| 1777971600 | 14.44° C | 91% | 1009.2 hPa | 0 mm | 0 m/s | 209 W/m² | - |
| 1777971482 | 14.44° C | 91% | 1009.2 hPa | 0 mm | 0.45 m/s, 41° | 185 W/m² | - |
| 1777971359 | 14.44° C | 91% | 1009.2 hPa | 0 mm | 0.45 m/s, 41° | 174 W/m² | - |
| 1777971237 | 14.44° C | 91% | 1009.2 hPa | 0 mm | 0.45 m/s, 42° | 165 W/m² | - |
| 1777971117 | 14.44° C | 91% | 1009.2 hPa | 0 mm | 0.45 m/s, 42° | 163 W/m² | - |
| 1777970994 | 14.44° C | 92% | 1009.2 hPa | 0 mm | 0.45 m/s, 42° | 165 W/m² | - |
| 1777970873 | 14.44° C | 92% | 1009.2 hPa | 0 mm | 0.45 m/s, 37° | 179 W/m² | - |
* Rain latest hour (hover to see other rain measurements)
** Current wind speed in m/s (hover to see current wind gust speed)